sensor_id;sensor_type;location;lat;lon;timestamp;P1;durP1;ratioP1;P2;durP2;ratioP2
73437;SDS011;66471;56.532;21.020;2023-02-13T06:36:18;18.00;;;7.60;;
73437;SDS011;66471;56.532;21.020;2023-02-13T08:23:54;18.85;;;7.07;;
73437;SDS011;66471;56.532;21.020;2023-02-13T08:26:21;17.23;;;5.30;;
73437;SDS011;66471;56.532;21.020;2023-02-13T08:28:48;13.07;;;4.47;;
73437;SDS011;66471;56.532;21.020;2023-02-13T08:31:15;11.10;;;4.43;;
73437;SDS011;66471;56.532;21.020;2023-02-13T08:33:42;15.68;;;5.53;;
73437;SDS011;66471;56.532;21.020;2023-02-13T08:36:10;13.98;;;5.22;;
73437;SDS011;66471;56.532;21.020;2023-02-13T08:38:37;8.57;;;4.70;;
73437;SDS011;66471;56.532;21.020;2023-02-13T08:41:06;18.98;;;6.32;;
73437;SDS011;66471;56.532;21.020;2023-02-13T08:43:33;14.27;;;6.10;;
73437;SDS011;66471;56.532;21.020;2023-02-13T08:46:00;21.40;;;8.20;;
73437;SDS011;66471;56.532;21.020;2023-02-13T08:48:28;13.43;;;6.88;;
73437;SDS011;66471;56.532;21.020;2023-02-13T08:50:55;16.50;;;7.05;;
73437;SDS011;66471;56.532;21.020;2023-02-13T08:53:23;9.55;;;5.82;;
73437;SDS011;66471;56.532;21.020;2023-02-13T08:55:53;12.10;;;6.10;;
73437;SDS011;66471;56.532;21.020;2023-02-13T08:58:22;13.68;;;3.92;;
73437;SDS011;66471;56.532;21.020;2023-02-13T09:00:49;12.88;;;4.10;;
73437;SDS011;66471;56.532;21.020;2023-02-13T09:03:16;10.88;;;4.05;;
73437;SDS011;66471;56.532;21.020;2023-02-13T09:05:44;7.65;;;4.22;;
73437;SDS011;66471;56.532;21.020;2023-02-13T09:08:11;11.33;;;4.60;;
73437;SDS011;66471;56.532;21.020;2023-02-13T09:10:39;6.75;;;3.35;;
73437;SDS011;66471;56.532;21.020;2023-02-13T09:13:09;16.85;;;3.83;;
73437;SDS011;66471;56.532;21.020;2023-02-13T09:15:39;10.88;;;3.63;;
73437;SDS011;66471;56.532;21.020;2023-02-13T09:18:07;11.70;;;4.38;;
73437;SDS011;66471;56.532;21.020;2023-02-13T09:20:34;10.67;;;3.80;;
73437;SDS011;66471;56.532;21.020;2023-02-13T09:23:01;8.73;;;3.92;;
73437;SDS011;66471;56.532;21.020;2023-02-13T09:25:28;10.27;;;3.95;;
73437;SDS011;66471;56.532;21.020;2023-02-13T09:27:58;6.75;;;3.05;;
73437;SDS011;66471;56.532;21.020;2023-02-13T09:30:25;9.98;;;3.33;;
73437;SDS011;66471;56.532;21.020;2023-02-13T09:32:52;9.47;;;3.33;;
73437;SDS011;66471;56.532;21.020;2023-02-13T09:35:21;13.85;;;4.57;;
73437;SDS011;66471;56.532;21.020;2023-02-13T09:37:49;8.48;;;3.15;;
73437;SDS011;66471;56.532;21.020;2023-02-13T09:42:50;11.23;;;3.78;;
73437;SDS011;66471;56.532;21.020;2023-02-13T09:45:19;7.50;;;3.03;;
73437;SDS011;66471;56.532;21.020;2023-02-13T09:47:47;9.50;;;3.03;;
73437;SDS011;66471;56.532;21.020;2023-02-13T09:50:18;14.27;;;3.65;;
73437;SDS011;66471;56.532;21.020;2023-02-13T09:52:52;11.27;;;3.78;;
73437;SDS011;66471;56.532;21.020;2023-02-13T09:58:12;11.73;;;3.83;;
73437;SDS011;66471;56.532;21.020;2023-02-13T10:00:51;9.82;;;3.42;;
73437;SDS011;66471;56.532;21.020;2023-02-13T10:06:07;9.65;;;3.60;;
73437;SDS011;66471;56.532;21.020;2023-02-13T10:17:06;8.10;;;3.70;;
73437;SDS011;66471;56.532;21.020;2023-02-13T10:19:40;9.00;;;3.67;;
73437;SDS011;66471;56.532;21.020;2023-02-13T10:22:23;7.80;;;3.80;;
73437;SDS011;66471;56.532;21.020;2023-02-13T10:25:11;7.73;;;3.20;;
73437;SDS011;66471;56.532;21.020;2023-02-13T10:28:04;9.27;;;3.70;;
73437;SDS011;66471;56.532;21.020;2023-02-13T10:30:40;8.90;;;4.20;;
73437;SDS011;66471;56.532;21.020;2023-02-13T10:33:17;9.85;;;3.25;;
73437;SDS011;66471;56.532;21.020;2023-02-13T10:35:51;10.88;;;4.22;;
73437;SDS011;66471;56.532;21.020;2023-02-13T10:38:33;12.57;;;4.20;;
73437;SDS011;66471;56.532;21.020;2023-02-13T10:46:40;9.40;;;3.63;;
73437;SDS011;66471;56.532;21.020;2023-02-13T10:49:26;10.82;;;4.07;;
73437;SDS011;66471;56.532;21.020;2023-02-13T10:52:10;11.50;;;3.50;;
73437;SDS011;66471;56.532;21.020;2023-02-13T10:54:53;8.65;;;3.33;;
73437;SDS011;66471;56.532;21.020;2023-02-13T14:07:35;12.63;;;2.73;;
73437;SDS011;66471;56.532;21.020;2023-02-13T14:10:04;9.10;;;3.78;;
73437;SDS011;66471;56.532;21.020;2023-02-13T14:14:59;6.68;;;2.50;;
73437;SDS011;66471;56.532;21.020;2023-02-13T14:34:30;8.83;;;3.63;;
73437;SDS011;66471;56.532;21.020;2023-02-13T14:37:00;11.77;;;5.60;;
73437;SDS011;66471;56.532;21.020;2023-02-13T14:39:42;10.18;;;3.03;;
73437;SDS011;66471;56.532;21.020;2023-02-13T14:42:29;9.32;;;4.15;;
73437;SDS011;66471;56.532;21.020;2023-02-13T14:44:58;10.30;;;3.33;;
73437;SDS011;66471;56.532;21.020;2023-02-13T14:50:01;10.10;;;4.25;;
73437;SDS011;66471;56.532;21.020;2023-02-13T14:52:32;14.35;;;4.40;;
73437;SDS011;66471;56.532;21.020;2023-02-13T14:55:06;9.68;;;3.72;;
73437;SDS011;66471;56.532;21.020;2023-02-13T14:57:41;10.20;;;3.95;;
73437;SDS011;66471;56.532;21.020;2023-02-13T15:00:24;9.40;;;3.87;;
73437;SDS011;66471;56.532;21.020;2023-02-13T15:03:10;9.32;;;4.93;;
73437;SDS011;66471;56.532;21.020;2023-02-13T15:05:48;10.35;;;4.10;;
73437;SDS011;66471;56.532;21.020;2023-02-13T15:08:21;12.48;;;4.97;;
73437;SDS011;66471;56.532;21.020;2023-02-13T15:10:55;11.82;;;4.97;;
73437;SDS011;66471;56.532;21.020;2023-02-13T15:13:24;14.80;;;5.53;;
73437;SDS011;66471;56.532;21.020;2023-02-13T15:16:01;17.70;;;7.18;;
73437;SDS011;66471;56.532;21.020;2023-02-13T15:18:34;17.25;;;7.13;;
73437;SDS011;66471;56.532;21.020;2023-02-13T15:21:14;42.30;;;15.05;;
73437;SDS011;66471;56.532;21.020;2023-02-13T15:23:48;30.02;;;11.48;;
73437;SDS011;66471;56.532;21.020;2023-02-13T15:26:21;38.63;;;14.63;;
73437;SDS011;66471;56.532;21.020;2023-02-13T15:29:02;21.58;;;10.15;;
73437;SDS011;66471;56.532;21.020;2023-02-13T15:31:53;28.42;;;16.58;;
73437;SDS011;66471;56.532;21.020;2023-02-13T15:34:21;16.42;;;7.50;;
73437;SDS011;66471;56.532;21.020;2023-02-13T15:37:02;36.88;;;14.68;;
73437;SDS011;66471;56.532;21.020;2023-02-13T15:39:30;40.17;;;15.73;;
73437;SDS011;66471;56.532;21.020;2023-02-13T15:41:58;17.60;;;9.40;;
73437;SDS011;66471;56.532;21.020;2023-02-13T15:44:27;18.92;;;8.15;;
73437;SDS011;66471;56.532;21.020;2023-02-13T15:47:07;16.58;;;5.07;;
73437;SDS011;66471;56.532;21.020;2023-02-13T15:49:55;11.25;;;6.63;;
73437;SDS011;66471;56.532;21.020;2023-02-13T15:54:56;11.63;;;5.13;;
73437;SDS011;66471;56.532;21.020;2023-02-13T15:57:24;15.20;;;5.28;;
73437;SDS011;66471;56.532;21.020;2023-02-13T15:59:56;8.43;;;3.40;;
73437;SDS011;66471;56.532;21.020;2023-02-13T16:02:41;23.80;;;10.20;;
73437;SDS011;66471;56.532;21.020;2023-02-13T16:05:13;14.73;;;7.93;;
73437;SDS011;66471;56.532;21.020;2023-02-13T16:07:49;13.38;;;5.50;;
73437;SDS011;66471;56.532;21.020;2023-02-13T16:12:58;19.10;;;5.80;;
73437;SDS011;66471;56.532;21.020;2023-02-13T16:15:29;20.65;;;8.52;;
73437;SDS011;66471;56.532;21.020;2023-02-13T16:17:59;30.63;;;11.60;;
73437;SDS011;66471;56.532;21.020;2023-02-13T16:20:27;12.98;;;4.57;;
73437;SDS011;66471;56.532;21.020;2023-02-13T16:28:00;16.88;;;8.63;;
73437;SDS011;66471;56.532;21.020;2023-02-13T16:30:57;18.27;;;7.80;;
73437;SDS011;66471;56.532;21.020;2023-02-13T16:33:32;13.13;;;4.43;;
73437;SDS011;66471;56.532;21.020;2023-02-13T16:51:36;26.50;;;14.57;;
73437;SDS011;66471;56.532;21.020;2023-02-13T16:57:04;16.03;;;7.50;;
73437;SDS011;66471;56.532;21.020;2023-02-13T17:02:21;18.55;;;8.65;;
73437;SDS011;66471;56.532;21.020;2023-02-13T17:05:19;15.45;;;6.93;;
73437;SDS011;66471;56.532;21.020;2023-02-13T17:07:52;13.77;;;5.30;;
73437;SDS011;66471;56.532;21.020;2023-02-13T17:10:24;10.43;;;4.40;;
73437;SDS011;66471;56.532;21.020;2023-02-13T17:12:53;18.42;;;7.55;;
73437;SDS011;66471;56.532;21.020;2023-02-13T17:15:22;14.55;;;4.90;;
73437;SDS011;66471;56.532;21.020;2023-02-13T17:17:50;14.73;;;6.43;;
73437;SDS011;66471;56.532;21.020;2023-02-13T17:20:23;14.60;;;5.90;;
73437;SDS011;66471;56.532;21.020;2023-02-13T17:22:53;13.03;;;5.87;;
73437;SDS011;66471;56.532;21.020;2023-02-13T17:25:22;13.18;;;5.00;;
73437;SDS011;66471;56.532;21.020;2023-02-13T17:27:52;12.63;;;5.70;;
73437;SDS011;66471;56.532;21.020;2023-02-13T17:30:22;11.77;;;4.40;;
73437;SDS011;66471;56.532;21.020;2023-02-13T17:32:58;10.90;;;2.58;;
73437;SDS011;66471;56.532;21.020;2023-02-13T17:35:28;8.27;;;3.80;;
73437;SDS011;66471;56.532;21.020;2023-02-13T17:37:55;13.20;;;3.80;;
73437;SDS011;66471;56.532;21.020;2023-02-13T17:40:23;11.88;;;4.00;;
73437;SDS011;66471;56.532;21.020;2023-02-13T17:42:51;13.00;;;4.53;;
73437;SDS011;66471;56.532;21.020;2023-02-13T17:45:21;27.35;;;13.25;;
73437;SDS011;66471;56.532;21.020;2023-02-13T17:47:49;22.57;;;7.80;;
73437;SDS011;66471;56.532;21.020;2023-02-13T17:50:16;20.63;;;8.50;;
